PRGMN SBGR-SBSJ
Flight info
| Callsign | PRGMN |
|---|---|
| Flight time | 0h 33m |
| Altitude | 7000 |
| Route | DCT |
| Aircraft | C172/L-SFG/C |
Departure
| Time | 2026-05-05 20:19 |
|---|---|
| Airport | São Paulo/Guarulhos–Governor André Franco Montoro International Airport (SBGR) |
Arrival
| Time | 2026-05-05 20:53 |
|---|---|
| Airport | Professor Urbano Ernesto Stumpf Airport (SBSJ) |
| Time | Latitude | Longitude | Altitude | Speed | Heading |
|---|---|---|---|---|---|
| 2026-05-05 20:06 | -23.43988 | -46.48084 | 2453 ft | 0 kts | 238° |
| 2026-05-05 20:13 | -23.43990 | -46.48090 | 2458 ft | 2 kts | 265° |
| 2026-05-05 20:14 | -23.43980 | -46.48105 | 2453 ft | 3 kts | 339° |
| 2026-05-05 20:14 | -23.43944 | -46.48128 | 2453 ft | 8 kts | 331° |
| 2026-05-05 20:14 | -23.43896 | -46.48170 | 2453 ft | 10 kts | 320° |
| 2026-05-05 20:14 | -23.43822 | -46.48201 | 2457 ft | 13 kts | 346° |
| 2026-05-05 20:15 | -23.43763 | -46.48217 | 2452 ft | 3 kts | 354° |
| 2026-05-05 20:15 | -23.43745 | -46.48208 | 2457 ft | 3 kts | 65° |
| 2026-05-05 20:15 | -23.43741 | -46.48182 | 2452 ft | 0 kts | 73° |
| 2026-05-05 20:18 | -23.43728 | -46.48136 | 2457 ft | 24 kts | 73° |
| 2026-05-05 20:18 | -23.43644 | -46.47812 | 2455 ft | 63 kts | 75° |
| 2026-05-05 20:18 | -23.43501 | -46.47259 | 2513 ft | 82 kts | 71° |
| 2026-05-05 20:19 | -23.43371 | -46.46659 | 2686 ft | 82 kts | 75° |
| 2026-05-05 20:19 | -23.43258 | -46.46049 | 2863 ft | 84 kts | 72° |
| 2026-05-05 20:19 | -23.43071 | -46.45399 | 3019 ft | 94 kts | 69° |
| 2026-05-05 20:19 | -23.42864 | -46.44728 | 3185 ft | 92 kts | 71° |
| 2026-05-05 20:20 | -23.42656 | -46.44087 | 3351 ft | 89 kts | 71° |
| 2026-05-05 20:20 | -23.42381 | -46.43501 | 3505 ft | 86 kts | 55° |
| 2026-05-05 20:20 | -23.42167 | -46.42913 | 3656 ft | 82 kts | 76° |
| 2026-05-05 20:20 | -23.41986 | -46.42328 | 3814 ft | 82 kts | 76° |
| 2026-05-05 20:21 | -23.41801 | -46.41753 | 3977 ft | 80 kts | 75° |
| 2026-05-05 20:21 | -23.41626 | -46.41190 | 4138 ft | 77 kts | 75° |
| 2026-05-05 20:21 | -23.41451 | -46.40654 | 4291 ft | 71 kts | 75° |
| 2026-05-05 20:21 | -23.41281 | -46.40130 | 4387 ft | 79 kts | 75° |
| 2026-05-05 20:22 | -23.41095 | -46.39534 | 4470 ft | 87 kts | 76° |
| 2026-05-05 20:22 | -23.40894 | -46.38884 | 4561 ft | 95 kts | 74° |
| 2026-05-05 20:22 | -23.40684 | -46.38171 | 4649 ft | 102 kts | 76° |
| 2026-05-05 20:22 | -23.40460 | -46.37422 | 4735 ft | 106 kts | 76° |
| 2026-05-05 20:23 | -23.40230 | -46.36650 | 4815 ft | 108 kts | 75° |
| 2026-05-05 20:23 | -23.40007 | -46.35864 | 4899 ft | 109 kts | 76° |
| 2026-05-05 20:23 | -23.39780 | -46.35064 | 4971 ft | 111 kts | 75° |
| 2026-05-05 20:23 | -23.39551 | -46.34254 | 5043 ft | 112 kts | 74° |
| 2026-05-05 20:24 | -23.39322 | -46.33443 | 5121 ft | 112 kts | 75° |
| 2026-05-05 20:24 | -23.39097 | -46.32633 | 5187 ft | 111 kts | 75° |
| 2026-05-05 20:24 | -23.38871 | -46.31835 | 5253 ft | 110 kts | 75° |
| 2026-05-05 20:24 | -23.38643 | -46.31036 | 5324 ft | 110 kts | 75° |
| 2026-05-05 20:25 | -23.38410 | -46.30241 | 5395 ft | 110 kts | 74° |
| 2026-05-05 20:25 | -23.38180 | -46.29450 | 5460 ft | 108 kts | 75° |
| 2026-05-05 20:25 | -23.37963 | -46.28680 | 5530 ft | 107 kts | 75° |
| 2026-05-05 20:25 | -23.37745 | -46.27904 | 5602 ft | 108 kts | 75° |
| 2026-05-05 20:26 | -23.37525 | -46.27115 | 5673 ft | 110 kts | 75° |
| 2026-05-05 20:26 | -23.37304 | -46.26320 | 5743 ft | 109 kts | 75° |
| 2026-05-05 20:26 | -23.37084 | -46.25526 | 5815 ft | 110 kts | 75° |
| 2026-05-05 20:26 | -23.36865 | -46.24731 | 5888 ft | 110 kts | 75° |
| 2026-05-05 20:27 | -23.36645 | -46.23938 | 5958 ft | 109 kts | 75° |
| 2026-05-05 20:27 | -23.36424 | -46.23149 | 6028 ft | 109 kts | 75° |
| 2026-05-05 20:27 | -23.36206 | -46.22366 | 6097 ft | 108 kts | 75° |
| 2026-05-05 20:27 | -23.35986 | -46.21590 | 6171 ft | 107 kts | 72° |
| 2026-05-05 20:28 | -23.35714 | -46.20844 | 6240 ft | 105 kts | 70° |
| 2026-05-05 20:28 | -23.35442 | -46.20105 | 6311 ft | 105 kts | 70° |
| 2026-05-05 20:28 | -23.35169 | -46.19361 | 6385 ft | 106 kts | 70° |
| 2026-05-05 20:28 | -23.34895 | -46.18617 | 6455 ft | 106 kts | 70° |
| 2026-05-05 20:29 | -23.34625 | -46.17874 | 6531 ft | 106 kts | 70° |
| 2026-05-05 20:29 | -23.34361 | -46.17152 | 6650 ft | 99 kts | 70° |
| 2026-05-05 20:29 | -23.34124 | -46.16507 | 6859 ft | 85 kts | 70° |
| 2026-05-05 20:29 | -23.33906 | -46.15914 | 6945 ft | 89 kts | 70° |
| 2026-05-05 20:30 | -23.33721 | -46.15403 | 6948 ft | 97 kts | 70° |
| 2026-05-05 20:30 | -23.33605 | -46.15085 | 6952 ft | 100 kts | 70° |
| 2026-05-05 20:30 | -23.33343 | -46.14361 | 6961 ft | 105 kts | 70° |
| 2026-05-05 20:30 | -23.33071 | -46.13612 | 6964 ft | 108 kts | 70° |
| 2026-05-05 20:31 | -23.32793 | -46.12843 | 6966 ft | 110 kts | 70° |
| 2026-05-05 20:31 | -23.32511 | -46.12068 | 6965 ft | 111 kts | 70° |
| 2026-05-05 20:31 | -23.32227 | -46.11285 | 6969 ft | 112 kts | 70° |
| 2026-05-05 20:31 | -23.31942 | -46.10497 | 6968 ft | 112 kts | 70° |
| 2026-05-05 20:32 | -23.31652 | -46.09704 | 6968 ft | 113 kts | 70° |
| 2026-05-05 20:32 | -23.31360 | -46.08906 | 6969 ft | 114 kts | 70° |
| 2026-05-05 20:32 | -23.31067 | -46.08106 | 6966 ft | 114 kts | 70° |
| 2026-05-05 20:32 | -23.30775 | -46.07303 | 6972 ft | 114 kts | 70° |
| 2026-05-05 20:33 | -23.30482 | -46.06501 | 6969 ft | 114 kts | 70° |
| 2026-05-05 20:33 | -23.30189 | -46.05698 | 6973 ft | 114 kts | 70° |
| 2026-05-05 20:33 | -23.29900 | -46.04895 | 6976 ft | 114 kts | 70° |
| 2026-05-05 20:33 | -23.29615 | -46.04107 | 6975 ft | 113 kts | 70° |
| 2026-05-05 20:34 | -23.29322 | -46.03295 | 6975 ft | 114 kts | 70° |
| 2026-05-05 20:34 | -23.29036 | -46.02506 | 6977 ft | 114 kts | 70° |
| 2026-05-05 20:34 | -23.28745 | -46.01707 | 6976 ft | 114 kts | 70° |
| 2026-05-05 20:34 | -23.28454 | -46.00907 | 6978 ft | 113 kts | 70° |
| 2026-05-05 20:35 | -23.28165 | -46.00110 | 6978 ft | 113 kts | 70° |
| 2026-05-05 20:35 | -23.27874 | -45.99311 | 6978 ft | 113 kts | 70° |
| 2026-05-05 20:35 | -23.27585 | -45.98513 | 6975 ft | 113 kts | 70° |
| 2026-05-05 20:35 | -23.27299 | -45.97719 | 6978 ft | 113 kts | 70° |
| 2026-05-05 20:36 | -23.27013 | -45.96923 | 6978 ft | 113 kts | 70° |
| 2026-05-05 20:36 | -23.26724 | -45.96130 | 6977 ft | 113 kts | 70° |
| 2026-05-05 20:36 | -23.26433 | -45.95332 | 6980 ft | 113 kts | 70° |
| 2026-05-05 20:36 | -23.26145 | -45.94535 | 6979 ft | 113 kts | 70° |
| 2026-05-05 20:37 | -23.25857 | -45.93739 | 6981 ft | 113 kts | 70° |
| 2026-05-05 20:37 | -23.25569 | -45.92942 | 6980 ft | 114 kts | 70° |
| 2026-05-05 20:37 | -23.25280 | -45.92143 | 6981 ft | 114 kts | 70° |
| 2026-05-05 20:37 | -23.24990 | -45.91341 | 6979 ft | 114 kts | 70° |
| 2026-05-05 20:38 | -23.24701 | -45.90540 | 6978 ft | 114 kts | 70° |
| 2026-05-05 20:38 | -23.24412 | -45.89740 | 6979 ft | 114 kts | 70° |
| 2026-05-05 20:38 | -23.24124 | -45.88937 | 6983 ft | 114 kts | 70° |
| 2026-05-05 20:38 | -23.23542 | -45.88419 | 6976 ft | 115 kts | 10° |
| 2026-05-05 20:39 | -23.22742 | -45.88322 | 6975 ft | 116 kts | 9° |
| 2026-05-05 20:39 | -23.21938 | -45.88213 | 6977 ft | 117 kts | 9° |
| 2026-05-05 20:39 | -23.21133 | -45.88106 | 6978 ft | 117 kts | 9° |
| 2026-05-05 20:39 | -23.20325 | -45.88001 | 6976 ft | 117 kts | 9° |
| 2026-05-05 20:40 | -23.19518 | -45.87894 | 6979 ft | 117 kts | 9° |
| 2026-05-05 20:40 | -23.18711 | -45.87789 | 6977 ft | 117 kts | 9° |
| 2026-05-05 20:40 | -23.17903 | -45.87685 | 6980 ft | 117 kts | 9° |
| 2026-05-05 20:40 | -23.17089 | -45.87581 | 6981 ft | 118 kts | 9° |
| 2026-05-05 20:41 | -23.16275 | -45.87477 | 6981 ft | 118 kts | 9° |
| 2026-05-05 20:41 | -23.15469 | -45.87375 | 6981 ft | 118 kts | 9° |
| 2026-05-05 20:41 | -23.14640 | -45.87270 | 6980 ft | 119 kts | 9° |
| 2026-05-05 20:41 | -23.13832 | -45.87169 | 6982 ft | 118 kts | 8° |
| 2026-05-05 20:42 | -23.13002 | -45.87063 | 6979 ft | 119 kts | 9° |
| 2026-05-05 20:42 | -23.12191 | -45.86963 | 6977 ft | 119 kts | 9° |
| 2026-05-05 20:42 | -23.11369 | -45.86862 | 6980 ft | 119 kts | 9° |
| 2026-05-05 20:42 | -23.10546 | -45.86763 | 6979 ft | 119 kts | 9° |
| 2026-05-05 20:43 | -23.09722 | -45.86664 | 6980 ft | 119 kts | 9° |
| 2026-05-05 20:43 | -23.08897 | -45.86567 | 6977 ft | 119 kts | 9° |
| 2026-05-05 20:43 | -23.08071 | -45.86473 | 6978 ft | 119 kts | 9° |
| 2026-05-05 20:43 | -23.07267 | -45.86383 | 6973 ft | 112 kts | 9° |
| 2026-05-05 20:44 | -23.06529 | -45.86265 | 6956 ft | 102 kts | 29° |
| 2026-05-05 20:44 | -23.06316 | -45.85677 | 6955 ft | 88 kts | 117° |
| 2026-05-05 20:44 | -23.06809 | -45.85285 | 6862 ft | 95 kts | 152° |
| 2026-05-05 20:44 | -23.07475 | -45.85448 | 6682 ft | 113 kts | 217° |
| 2026-05-05 20:45 | -23.08731 | -45.86622 | 6321 ft | 121 kts | 217° |
| 2026-05-05 20:45 | -23.09362 | -45.87205 | 6130 ft | 118 kts | 217° |
| 2026-05-05 20:45 | -23.09985 | -45.87779 | 5937 ft | 117 kts | 217° |
| 2026-05-05 20:46 | -23.10605 | -45.88345 | 5742 ft | 117 kts | 217° |
| 2026-05-05 20:46 | -23.11245 | -45.88923 | 5464 ft | 123 kts | 217° |
| 2026-05-05 20:46 | -23.11877 | -45.89556 | 5185 ft | 126 kts | 235° |
| 2026-05-05 20:46 | -23.12217 | -45.90443 | 4897 ft | 128 kts | 247° |
| 2026-05-05 20:47 | -23.12529 | -45.91327 | 4636 ft | 121 kts | 247° |
| 2026-05-05 20:47 | -23.12820 | -45.92157 | 4436 ft | 115 kts | 247° |
| 2026-05-05 20:47 | -23.13088 | -45.92926 | 4240 ft | 104 kts | 247° |
| 2026-05-05 20:47 | -23.13339 | -45.93648 | 4040 ft | 103 kts | 246° |
| 2026-05-05 20:48 | -23.13600 | -45.94398 | 3852 ft | 106 kts | 245° |
| 2026-05-05 20:48 | -23.14153 | -45.94799 | 3680 ft | 99 kts | 170° |
| 2026-05-05 20:48 | -23.14657 | -45.94413 | 3672 ft | 83 kts | 137° |
| 2026-05-05 20:48 | -23.15119 | -45.93984 | 3670 ft | 92 kts | 138° |
| 2026-05-05 20:49 | -23.15627 | -45.93508 | 3682 ft | 99 kts | 137° |
| 2026-05-05 20:49 | -23.16200 | -45.93051 | 3601 ft | 110 kts | 155° |
| 2026-05-05 20:49 | -23.16768 | -45.92662 | 3471 ft | 87 kts | 136° |
| 2026-05-05 20:49 | -23.17215 | -45.92247 | 3361 ft | 82 kts | 137° |
| 2026-05-05 20:50 | -23.17633 | -45.91835 | 3260 ft | 81 kts | 136° |
| 2026-05-05 20:50 | -23.18048 | -45.91412 | 3162 ft | 82 kts | 135° |
| 2026-05-05 20:50 | -23.18459 | -45.90981 | 3056 ft | 82 kts | 135° |
| 2026-05-05 20:50 | -23.18876 | -45.90541 | 2953 ft | 85 kts | 135° |
| 2026-05-05 20:51 | -23.19297 | -45.90096 | 2843 ft | 83 kts | 135° |
| 2026-05-05 20:51 | -23.19700 | -45.89660 | 2735 ft | 81 kts | 134° |
| 2026-05-05 20:51 | -23.20097 | -45.89228 | 2630 ft | 82 kts | 134° |
| 2026-05-05 20:51 | -23.20504 | -45.88786 | 2520 ft | 83 kts | 135° |
| 2026-05-05 20:52 | -23.20894 | -45.88336 | 2406 ft | 82 kts | 134° |
| 2026-05-05 20:52 | -23.21306 | -45.87899 | 2278 ft | 83 kts | 136° |
| 2026-05-05 20:52 | -23.21723 | -45.87457 | 2159 ft | 84 kts | 135° |
| 2026-05-05 20:52 | -23.22128 | -45.87024 | 2043 ft | 71 kts | 134° |
| 2026-05-05 20:53 | -23.22321 | -45.86816 | 2052 ft | 12 kts | 133° |
| 2026-05-05 20:53 | -23.22385 | -45.86746 | 2056 ft | 14 kts | 135° |
| 2026-05-05 20:53 | -23.22440 | -45.86663 | 2059 ft | 14 kts | 83° |
| 2026-05-05 20:53 | -23.22395 | -45.86594 | 2061 ft | 10 kts | 43° |
| 2026-05-05 20:54 | -23.22392 | -45.86591 | 2061 ft | 0 kts | 43° |
| 2026-05-05 20:54 | -23.22390 | -45.86590 | 2061 ft | 0 kts | 50° |
| 2026-05-05 20:55 | -23.22390 | -45.86589 | 2061 ft | 2 kts | 52° |
| 2026-05-05 20:55 | -23.22357 | -45.86539 | 2062 ft | 9 kts | 73° |
| 2026-05-05 20:55 | -23.22369 | -45.86507 | 2063 ft | 8 kts | 145° |
| 2026-05-05 20:55 | -23.22413 | -45.86462 | 2065 ft | 9 kts | 135° |
| 2026-05-05 20:56 | -23.22460 | -45.86412 | 2068 ft | 10 kts | 135° |
| 2026-05-05 20:56 | -23.22511 | -45.86358 | 2070 ft | 11 kts | 136° |
| 2026-05-05 20:56 | -23.22545 | -45.86319 | 2072 ft | 1 kts | 129° |
| 2026-05-05 20:56 | -23.22544 | -45.86297 | 2073 ft | 4 kts | 54° |
| 2026-05-05 20:57 | -23.22543 | -45.86253 | 2072 ft | 8 kts | 142° |
| 2026-05-05 20:57 | -23.22597 | -45.86239 | 2075 ft | 8 kts | 162° |
| 2026-05-05 20:57 | -23.22614 | -45.86212 | 2077 ft | 0 kts | 75° |
| 2026-05-05 20:57 | -23.22591 | -45.86192 | 2076 ft | 4 kts | 354° |
| 2026-05-05 20:58 | -23.22582 | -45.86191 | 2076 ft | 0 kts | 36° |